createdAt,value
2023-01-08T00:00:20.943Z,207.62
2023-01-08T00:01:24.472Z,146.87
2023-01-08T00:02:27.678Z,147.07
2023-01-08T00:03:30.937Z,144.00
2023-01-08T00:04:34.034Z,196.40
2023-01-08T00:05:37.110Z,153.15
2023-01-08T00:06:40.201Z,152.85
2023-01-08T00:07:43.199Z,162.27
2023-01-08T00:08:46.338Z,208.25
2023-01-08T00:09:50.882Z,171.13
2023-01-08T00:10:57.120Z,170.35
2023-01-08T00:12:00.236Z,201.75
2023-01-08T00:13:07.102Z,168.73
2023-01-08T00:14:10.473Z,163.68
2023-01-08T00:15:13.591Z,155.65
2023-01-08T00:16:18.940Z,274.37
2023-01-08T00:17:22.446Z,149.60
2023-01-08T00:18:27.357Z,196.70
2023-01-08T00:19:31.541Z,138.62
2023-01-08T00:20:34.938Z,156.75
2023-01-08T00:21:38.252Z,146.50
2023-01-08T00:22:41.608Z,182.12
2023-01-08T00:23:45.024Z,219.18
2023-01-08T00:24:48.320Z,163.20
2023-01-08T00:25:51.587Z,155.12
2023-01-08T00:26:54.755Z,180.90
2023-01-08T00:28:00.732Z,162.52
2023-01-08T00:29:03.841Z,133.82
2023-01-08T00:30:07.373Z,153.65
2023-01-08T00:31:12.937Z,139.02
2023-01-08T00:32:16.013Z,173.40
2023-01-08T00:33:19.151Z,104.45
2023-01-08T00:34:22.108Z,134.90
2023-01-08T00:35:25.201Z,79.50
2023-01-08T00:36:28.423Z,100.00
2023-01-08T00:37:31.661Z,72.57
2023-01-08T00:38:35.390Z,82.20
2023-01-08T00:39:38.578Z,104.45
2023-01-08T00:40:41.619Z,110.50
2023-01-08T00:41:45.770Z,115.78
2023-01-08T00:42:48.958Z,111.45
2023-01-08T00:43:52.121Z,142.48
2023-01-08T00:44:55.240Z,120.57
2023-01-08T00:45:58.424Z,112.85
2023-01-08T00:47:01.584Z,93.75
2023-01-08T00:48:04.863Z,124.43
2023-01-08T00:49:07.873Z,122.53
2023-01-08T00:50:11.546Z,65.93
2023-01-08T00:51:14.704Z,246.25
2023-01-08T00:52:17.750Z,102.05
2023-01-08T00:53:22.352Z,109.75
2023-01-08T00:54:25.464Z,86.70
2023-01-08T00:55:28.524Z,69.20
2023-01-08T00:56:31.860Z,85.15
2023-01-08T00:57:39.630Z,92.37
2023-01-08T00:58:42.719Z,107.50
2023-01-08T00:59:46.345Z,241.55
2023-01-08T01:00:49.688Z,145.35
2023-01-08T01:01:54.786Z,56.65
2023-01-08T01:02:58.321Z,92.47
2023-01-08T01:04:01.426Z,93.15
2023-01-08T01:05:05.884Z,134.85
2023-01-08T01:06:11.351Z,109.57
2023-01-08T01:07:14.694Z,117.03
2023-01-08T01:08:18.004Z,70.75
2023-01-08T01:09:21.145Z,69.50
2023-01-08T01:10:24.949Z,63.75
2023-01-08T01:11:29.139Z,58.10
2023-01-08T01:12:32.317Z,58.60
2023-01-08T01:13:35.332Z,66.28
2023-01-08T01:14:39.007Z,70.53
2023-01-08T01:15:42.102Z,62.40
2023-01-08T01:16:48.070Z,61.53
2023-01-08T01:17:51.259Z,67.87
2023-01-08T01:18:55.770Z,56.63
2023-01-08T01:19:59.183Z,80.10
2023-01-08T01:21:02.385Z,87.82
2023-01-08T01:22:06.050Z,99.75
2023-01-08T01:23:09.283Z,91.63
2023-01-08T01:24:13.436Z,123.90
2023-01-08T01:25:17.064Z,118.47
2023-01-08T01:26:22.694Z,127.85
2023-01-08T01:27:26.769Z,97.05
2023-01-08T01:28:29.966Z,63.15
2023-01-08T01:29:33.378Z,64.43
2023-01-08T01:30:36.390Z,62.60
2023-01-08T01:31:39.492Z,62.38
2023-01-08T01:32:42.614Z,56.92
2023-01-08T01:33:46.541Z,58.60
2023-01-08T01:34:49.775Z,56.30
2023-01-08T01:36:03.265Z,64.90
2023-01-08T01:37:07.774Z,56.65
2023-01-08T01:38:11.002Z,55.92
2023-01-08T01:39:14.009Z,55.00
2023-01-08T01:40:17.242Z,56.65
2023-01-08T01:41:33.223Z,74.47
2023-01-08T01:42:42.458Z,61.70
2023-01-08T01:43:45.519Z,59.70
2023-01-08T01:44:48.662Z,58.28
2023-01-08T01:45:51.850Z,54.08
2023-01-08T01:46:55.296Z,61.70
2023-01-08T01:48:06.994Z,58.83
2023-01-08T01:49:19.188Z,57.28
2023-01-08T01:50:36.171Z,62.85
2023-01-08T01:51:46.621Z,53.67
2023-01-08T01:52:58.599Z,54.25
2023-01-08T01:54:04.148Z,60.83
2023-01-08T01:55:09.509Z,58.65
2023-01-08T01:56:12.527Z,62.25
2023-01-08T01:57:15.837Z,60.17
2023-01-08T01:58:28.167Z,51.45
2023-01-08T01:59:31.565Z,60.80
2023-01-08T02:00:35.977Z,53.10
2023-01-08T02:01:41.708Z,54.17
2023-01-08T02:02:45.481Z,51.08
2023-01-08T02:03:48.903Z,59.53
2023-01-08T02:04:52.221Z,51.30
2023-01-08T02:06:06.355Z,54.72
2023-01-08T02:07:28.076Z,56.25
2023-01-08T02:09:03.461Z,57.38
2023-01-08T02:10:31.464Z,51.97
2023-01-08T02:12:13.365Z,60.33
2023-01-08T02:13:24.777Z,60.33
2023-01-08T02:14:37.988Z,59.10
2023-01-08T02:16:14.739Z,53.03
2023-01-08T02:17:26.674Z,64.25
2023-01-08T02:18:46.274Z,55.55
2023-01-08T02:19:58.996Z,55.92
2023-01-08T02:21:19.343Z,61.90
2023-01-08T02:22:46.780Z,64.40
2023-01-08T02:24:11.265Z,56.67
2023-01-08T02:25:31.052Z,56.47
2023-01-08T02:26:36.384Z,45.45
2023-01-08T02:27:42.892Z,54.55
2023-01-08T02:28:55.655Z,59.70
2023-01-08T02:29:58.965Z,59.42
2023-01-08T02:31:02.681Z,58.33
2023-01-08T02:32:06.028Z,60.08
2023-01-08T02:33:09.265Z,60.17
2023-01-08T02:34:13.319Z,57.58
2023-01-08T02:35:16.458Z,52.03
2023-01-08T02:36:51.482Z,62.28
2023-01-08T02:37:54.667Z,52.78
2023-01-08T02:39:16.480Z,59.05
2023-01-08T02:40:28.478Z,55.88
2023-01-08T02:41:57.230Z,56.55
2023-01-08T02:43:11.711Z,55.55
2023-01-08T02:44:22.805Z,46.55
2023-01-08T02:45:44.400Z,51.83
2023-01-08T02:46:52.385Z,56.35
2023-01-08T02:48:26.295Z,55.35
2023-01-08T02:49:33.639Z,51.53
2023-01-08T02:50:46.853Z,49.55
2023-01-08T02:51:55.142Z,49.38
2023-01-08T02:53:29.974Z,52.03
2023-01-08T02:54:35.575Z,52.92
2023-01-08T02:55:42.331Z,50.75
2023-01-08T02:56:49.699Z,52.95
2023-01-08T02:57:53.797Z,51.40
2023-01-08T02:59:00.347Z,52.60
2023-01-08T03:00:04.504Z,56.42
2023-01-08T03:01:12.681Z,51.95
2023-01-08T03:02:17.347Z,51.58
2023-01-08T03:03:25.656Z,56.78
2023-01-08T03:04:35.346Z,46.42
2023-01-08T03:05:41.678Z,55.30
2023-01-08T03:06:45.725Z,57.65
2023-01-08T03:07:49.846Z,61.70
2023-01-08T03:08:54.342Z,47.72
2023-01-08T03:09:57.458Z,56.37
2023-01-08T03:11:15.976Z,51.40
2023-01-08T03:12:31.096Z,52.33
2023-01-08T03:14:10.139Z,61.05
2023-01-08T03:15:21.757Z,48.50
2023-01-08T03:16:35.913Z,43.03
2023-01-08T03:17:49.014Z,46.75
2023-01-08T03:18:57.905Z,48.38
2023-01-08T03:20:07.945Z,48.10
2023-01-08T03:21:12.348Z,50.42
2023-01-08T03:22:17.880Z,49.60
2023-01-08T03:23:23.576Z,46.37
2023-01-08T03:24:31.554Z,51.83
2023-01-08T03:25:38.503Z,49.13
2023-01-08T03:26:43.960Z,46.00
2023-01-08T03:27:51.445Z,56.25
2023-01-08T03:28:57.160Z,49.13
2023-01-08T03:30:00.786Z,48.75
2023-01-08T03:31:05.979Z,49.35
2023-01-08T03:32:16.379Z,46.63
2023-01-08T03:33:21.048Z,50.42
2023-01-08T03:34:26.595Z,50.35
2023-01-08T03:35:31.585Z,48.17
2023-01-08T03:36:37.827Z,50.75
2023-01-08T03:37:45.533Z,45.03
2023-01-08T03:38:59.745Z,50.28
2023-01-08T03:40:11.338Z,46.08
2023-01-08T03:41:20.119Z,48.60
2023-01-08T03:42:25.471Z,50.85
2023-01-08T03:43:29.517Z,50.65
2023-01-08T03:44:32.630Z,51.45
2023-01-08T03:45:39.216Z,52.05
2023-01-08T03:46:48.319Z,48.28
2023-01-08T03:47:53.023Z,47.03
2023-01-08T03:48:57.453Z,53.65
2023-01-08T03:50:10.173Z,52.42
2023-01-08T03:51:13.912Z,50.88
2023-01-08T03:52:25.280Z,51.30
2023-01-08T03:53:28.928Z,46.85
2023-01-08T03:54:34.307Z,49.08
2023-01-08T03:55:37.359Z,50.25
2023-01-08T03:56:40.403Z,49.08
2023-01-08T03:57:43.486Z,48.45
2023-01-08T03:58:47.776Z,45.33
2023-01-08T03:59:50.906Z,43.22
2023-01-08T04:00:54.088Z,49.55
2023-01-08T04:01:57.376Z,49.58
2023-01-08T04:03:00.612Z,48.25
2023-01-08T04:04:03.922Z,53.92
2023-01-08T04:05:07.919Z,50.97
2023-01-08T04:06:10.935Z,45.97
2023-01-08T04:07:14.143Z,49.33
2023-01-08T04:08:17.349Z,47.38
2023-01-08T04:09:20.614Z,47.25
2023-01-08T04:10:25.336Z,55.67
2023-01-08T04:11:28.539Z,59.78
2023-01-08T04:12:31.881Z,51.85
2023-01-08T04:13:34.930Z,53.42
2023-01-08T04:14:38.215Z,50.25
2023-01-08T04:15:41.336Z,54.97
2023-01-08T04:16:44.595Z,48.80
2023-01-08T04:17:47.772Z,48.97
2023-01-08T04:18:51.017Z,50.60
2023-01-08T04:19:54.084Z,49.58
2023-01-08T04:20:57.422Z,52.10
2023-01-08T04:22:00.499Z,49.85
2023-01-08T04:23:03.699Z,50.95
2023-01-08T04:24:07.492Z,48.53
2023-01-08T04:25:10.840Z,46.60
2023-01-08T04:26:14.095Z,49.80
2023-01-08T04:27:17.820Z,46.60
2023-01-08T04:28:21.608Z,53.80
2023-01-08T04:29:24.640Z,46.63
2023-01-08T04:30:27.786Z,53.10
2023-01-08T04:31:31.741Z,56.15
2023-01-08T04:32:35.146Z,50.50
2023-01-08T04:33:38.223Z,51.80
2023-01-08T04:34:41.298Z,60.78
2023-01-08T04:35:44.303Z,50.88
2023-01-08T04:36:47.550Z,53.67
2023-01-08T04:37:50.630Z,53.10
2023-01-08T04:38:53.753Z,46.90
2023-01-08T04:39:56.917Z,50.38
2023-01-08T04:41:01.315Z,51.95
2023-01-08T04:42:04.466Z,49.10
2023-01-08T04:43:07.528Z,52.80
2023-01-08T04:44:10.934Z,53.72
2023-01-08T04:45:14.069Z,52.80
2023-01-08T04:46:17.321Z,52.40
2023-01-08T04:47:20.487Z,47.17
2023-01-08T04:48:23.699Z,49.65
2023-01-08T04:49:26.756Z,47.97
2023-01-08T04:50:29.861Z,48.87
2023-01-08T04:51:32.906Z,51.08
2023-01-08T04:52:36.361Z,52.33
2023-01-08T04:53:41.540Z,51.63
2023-01-08T04:54:44.538Z,48.92
2023-01-08T04:55:47.711Z,45.38
2023-01-08T04:56:52.186Z,50.75
2023-01-08T04:57:55.266Z,51.97
2023-01-08T04:59:01.312Z,46.45
2023-01-08T05:00:05.679Z,51.85
2023-01-08T05:01:25.292Z,50.12
2023-01-08T05:02:28.736Z,44.83
2023-01-08T05:03:31.804Z,48.00
2023-01-08T05:04:34.943Z,50.08
2023-01-08T05:05:38.892Z,45.12
2023-01-08T05:06:42.284Z,55.35
2023-01-08T05:07:45.298Z,50.80
2023-01-08T05:08:48.826Z,53.15
2023-01-08T05:09:52.504Z,47.47
2023-01-08T05:10:58.844Z,49.63
2023-01-08T05:12:01.954Z,51.95
2023-01-08T05:13:04.990Z,47.22
2023-01-08T05:14:08.094Z,54.97
2023-01-08T05:15:11.455Z,43.25
2023-01-08T05:16:14.653Z,42.72
2023-01-08T05:17:17.966Z,45.28
2023-01-08T05:18:21.161Z,45.40
2023-01-08T05:19:24.701Z,46.53
2023-01-08T05:20:28.354Z,48.15
2023-01-08T05:21:31.466Z,48.92
2023-01-08T05:22:35.261Z,45.00
2023-01-08T05:23:38.439Z,47.08
2023-01-08T05:24:41.619Z,44.25
2023-01-08T05:25:44.572Z,48.65
2023-01-08T05:26:47.757Z,45.83
2023-01-08T05:27:50.981Z,50.78
2023-01-08T05:28:54.299Z,43.45
2023-01-08T05:29:57.455Z,45.53
2023-01-08T05:31:00.970Z,47.35
2023-01-08T05:32:03.986Z,47.05
2023-01-08T05:33:07.049Z,44.17
2023-01-08T05:34:10.178Z,45.42
2023-01-08T05:35:13.204Z,49.15
2023-01-08T05:36:16.336Z,41.22
2023-01-08T05:37:19.626Z,43.63
2023-01-08T05:38:23.085Z,44.00
2023-01-08T05:39:26.195Z,44.42
2023-01-08T05:40:29.428Z,42.53
2023-01-08T05:41:32.736Z,45.05
2023-01-08T05:42:36.633Z,47.40
2023-01-08T05:43:39.576Z,51.88
2023-01-08T05:44:42.576Z,44.03
2023-01-08T05:45:45.580Z,44.88
2023-01-08T05:46:49.157Z,44.53
2023-01-08T05:47:52.500Z,45.60
2023-01-08T05:48:55.800Z,45.55
2023-01-08T05:49:59.422Z,49.78
2023-01-08T05:51:03.042Z,44.42
2023-01-08T05:52:06.014Z,44.00
2023-01-08T05:53:09.989Z,44.45
2023-01-08T05:54:13.089Z,47.58
2023-01-08T05:55:16.236Z,46.00
2023-01-08T05:56:19.425Z,44.40
2023-01-08T05:57:22.468Z,42.55
2023-01-08T05:58:27.516Z,45.58
2023-01-08T05:59:30.623Z,44.03
2023-01-08T06:00:34.978Z,48.05
2023-01-08T06:01:38.147Z,47.62
2023-01-08T06:02:41.254Z,47.03
2023-01-08T06:03:44.627Z,43.72
2023-01-08T06:04:47.581Z,50.20
2023-01-08T06:05:50.551Z,45.05
2023-01-08T06:06:53.627Z,48.05
2023-01-08T06:07:56.704Z,43.30
2023-01-08T06:08:59.799Z,48.25
2023-01-08T06:10:02.784Z,49.95
2023-01-08T06:11:09.515Z,43.47
2023-01-08T06:12:12.502Z,44.95
2023-01-08T06:13:15.585Z,40.20
2023-01-08T06:14:18.563Z,46.88
2023-01-08T06:15:21.769Z,43.97
2023-01-08T06:16:24.713Z,51.25
2023-01-08T06:17:27.943Z,47.38
2023-01-08T06:18:31.477Z,44.58
2023-01-08T06:19:35.100Z,42.62
2023-01-08T06:20:38.237Z,42.05
2023-01-08T06:21:41.467Z,45.22
2023-01-08T06:22:44.641Z,39.10
2023-01-08T06:23:47.643Z,50.97
2023-01-08T06:24:50.858Z,48.05
2023-01-08T06:25:55.735Z,44.55
2023-01-08T06:26:59.037Z,43.17
2023-01-08T06:28:02.154Z,49.30
2023-01-08T06:29:05.209Z,44.30
2023-01-08T06:30:09.520Z,42.70
2023-01-08T06:31:12.625Z,42.55
2023-01-08T06:32:15.673Z,43.53
2023-01-08T06:33:21.592Z,46.20
2023-01-08T06:34:25.298Z,41.72
2023-01-08T06:35:28.758Z,39.33
2023-01-08T06:36:32.222Z,37.28
2023-01-08T06:37:35.590Z,36.95
2023-01-08T06:38:38.858Z,42.08
2023-01-08T06:39:41.899Z,44.10
2023-01-08T06:40:45.770Z,46.92
2023-01-08T06:41:48.792Z,42.97
2023-01-08T06:42:51.922Z,44.88
2023-01-08T06:43:55.087Z,45.60
2023-01-08T06:44:58.307Z,48.13
2023-01-08T06:46:01.539Z,41.67
2023-01-08T06:47:04.569Z,47.95
2023-01-08T06:48:08.044Z,47.13
2023-01-08T06:49:11.105Z,46.33
2023-01-08T06:50:14.241Z,49.80
2023-01-08T06:51:17.784Z,46.17
2023-01-08T06:52:20.774Z,50.67
2023-01-08T06:53:23.827Z,57.65
2023-01-08T06:54:27.018Z,50.00
2023-01-08T06:55:30.201Z,47.85
2023-01-08T06:56:39.888Z,46.03
2023-01-08T06:57:49.183Z,47.20
2023-01-08T06:58:52.190Z,45.78
2023-01-08T06:59:55.826Z,46.17
2023-01-08T07:00:59.753Z,48.83
2023-01-08T07:02:03.001Z,44.05
2023-01-08T07:03:06.620Z,42.10
2023-01-08T07:04:09.851Z,49.00
2023-01-08T07:05:12.927Z,44.60
2023-01-08T07:06:18.449Z,42.72
2023-01-08T07:07:22.178Z,38.88
2023-01-08T07:08:25.455Z,40.63
2023-01-08T07:09:28.607Z,37.28
2023-01-08T07:10:31.878Z,42.72
2023-01-08T07:11:35.452Z,44.00
2023-01-08T07:12:38.830Z,42.95
2023-01-08T07:13:42.140Z,40.55
2023-01-08T07:14:45.366Z,44.47
2023-01-08T07:15:48.540Z,40.47
2023-01-08T07:16:51.724Z,40.38
2023-01-08T07:17:54.663Z,42.88
2023-01-08T07:18:58.741Z,43.08
2023-01-08T07:20:01.831Z,41.83
2023-01-08T07:21:06.548Z,44.10
2023-01-08T07:22:09.701Z,34.55
2023-01-08T07:23:12.792Z,32.60
2023-01-08T07:24:15.809Z,37.20
2023-01-08T07:25:18.973Z,37.55
2023-01-08T07:26:21.954Z,37.05
2023-01-08T07:27:25.280Z,43.80
2023-01-08T07:28:29.125Z,42.03
2023-01-08T07:29:32.262Z,42.72
2023-01-08T07:30:35.228Z,41.67
2023-01-08T07:31:38.643Z,41.75
2023-01-08T07:32:41.715Z,39.28
2023-01-08T07:33:45.106Z,38.42
2023-01-08T07:34:48.153Z,38.72
2023-01-08T07:35:54.734Z,38.33
2023-01-08T07:36:57.953Z,41.15
2023-01-08T07:38:01.030Z,40.22
2023-01-08T07:39:04.556Z,36.17
2023-01-08T07:40:10.115Z,37.13
2023-01-08T07:41:13.576Z,44.70
2023-01-08T07:42:16.681Z,38.63
2023-01-08T07:43:20.126Z,39.88
2023-01-08T07:44:23.169Z,36.80
2023-01-08T07:45:28.195Z,43.17
2023-01-08T07:46:31.161Z,36.53
2023-01-08T07:47:34.479Z,35.15
2023-01-08T07:48:37.656Z,34.95
2023-01-08T07:49:40.800Z,35.08
2023-01-08T07:50:44.582Z,26.48
2023-01-08T07:51:50.240Z,38.22
2023-01-08T07:52:53.702Z,35.45
2023-01-08T07:53:57.044Z,38.63
2023-01-08T07:54:59.940Z,36.83
2023-01-08T07:56:04.956Z,39.63
2023-01-08T07:57:08.318Z,40.78
2023-01-08T07:58:13.873Z,40.65
2023-01-08T07:59:16.983Z,38.85
2023-01-08T08:00:20.650Z,38.15
2023-01-08T08:01:26.536Z,41.92
2023-01-08T08:02:30.184Z,40.97
2023-01-08T08:03:33.484Z,43.13
2023-01-08T08:04:36.519Z,43.10
2023-01-08T08:05:39.841Z,43.13
2023-01-08T08:06:43.774Z,41.55
2023-01-08T08:07:46.846Z,42.08
2023-01-08T08:08:49.885Z,35.78
2023-01-08T08:09:53.307Z,38.17
2023-01-08T08:10:56.837Z,39.47
2023-01-08T08:12:00.120Z,34.20
2023-01-08T08:13:03.516Z,35.42
2023-01-08T08:14:07.477Z,33.30
2023-01-08T08:15:10.824Z,34.90
2023-01-08T08:16:13.940Z,31.25
2023-01-08T08:17:17.079Z,41.67
2023-01-08T08:18:20.457Z,36.72
2023-01-08T08:19:23.687Z,38.78
2023-01-08T08:20:27.413Z,36.22
2023-01-08T08:21:30.971Z,29.63
2023-01-08T08:22:34.008Z,34.55
2023-01-08T08:23:37.214Z,41.72
2023-01-08T08:24:40.833Z,36.22
2023-01-08T08:25:44.193Z,33.83
2023-01-08T08:26:47.468Z,36.22
2023-01-08T08:27:50.756Z,35.22
2023-01-08T08:28:53.821Z,37.15
2023-01-08T08:29:56.927Z,27.30
2023-01-08T08:31:00.065Z,31.25
2023-01-08T08:32:04.047Z,28.60
2023-01-08T08:33:07.601Z,29.77
2023-01-08T08:34:10.617Z,27.55
2023-01-08T08:35:13.919Z,28.90
2023-01-08T08:36:17.154Z,32.20
2023-01-08T08:37:20.291Z,39.47
2023-01-08T08:38:24.200Z,31.58
2023-01-08T08:39:27.768Z,35.08
2023-01-08T08:40:31.397Z,32.97
2023-01-08T08:41:34.509Z,33.15
2023-01-08T08:42:37.501Z,34.08
2023-01-08T08:43:40.584Z,34.60
2023-01-08T08:44:43.738Z,30.98
2023-01-08T08:45:47.150Z,34.47
2023-01-08T08:46:50.574Z,30.20
2023-01-08T08:47:54.068Z,35.03
2023-01-08T08:48:57.053Z,36.20
2023-01-08T08:50:00.017Z,34.70
2023-01-08T08:51:04.862Z,32.22
2023-01-08T08:52:07.969Z,24.58
2023-01-08T08:53:11.504Z,25.83
2023-01-08T08:54:14.744Z,30.00
2023-01-08T08:55:18.391Z,33.05
2023-01-08T08:56:21.527Z,29.17
2023-01-08T08:57:25.784Z,25.70
2023-01-08T08:58:28.909Z,30.40
2023-01-08T08:59:33.106Z,31.05
2023-01-08T09:00:36.065Z,28.60
2023-01-08T09:01:39.385Z,25.58
2023-01-08T09:02:42.769Z,28.95
2023-01-08T09:03:45.917Z,28.42
2023-01-08T09:04:49.288Z,26.33
2023-01-08T09:05:52.373Z,31.65
2023-01-08T09:06:55.400Z,33.55
2023-01-08T09:07:58.915Z,32.38
2023-01-08T09:09:02.017Z,29.40
2023-01-08T09:10:05.743Z,30.92
2023-01-08T09:11:09.070Z,32.17
2023-01-08T09:12:12.040Z,35.05
2023-01-08T09:13:15.320Z,31.25
2023-01-08T09:14:18.241Z,27.62
2023-01-08T09:15:22.768Z,29.63
2023-01-08T09:16:26.089Z,30.33
2023-01-08T09:17:31.393Z,33.72
2023-01-08T09:18:34.329Z,25.73
2023-01-08T09:19:38.902Z,26.37
2023-01-08T09:20:42.226Z,25.55
2023-01-08T09:21:46.066Z,26.48
2023-01-08T09:22:49.213Z,26.02
2023-01-08T09:23:52.342Z,27.15
2023-01-08T09:24:55.572Z,25.02
2023-01-08T09:26:06.013Z,26.02
2023-01-08T09:27:11.132Z,23.10
2023-01-08T09:28:15.373Z,24.98
2023-01-08T09:29:18.498Z,25.62
2023-01-08T09:30:21.692Z,24.52
2023-01-08T09:31:25.646Z,25.62
2023-01-08T09:32:28.828Z,23.23
2023-01-08T09:33:32.834Z,25.40
2023-01-08T09:34:39.098Z,25.37
2023-01-08T09:35:44.709Z,30.80
2023-01-08T09:36:48.447Z,26.12
2023-01-08T09:37:55.865Z,26.40
2023-01-08T09:38:58.902Z,22.40
2023-01-08T09:40:07.325Z,25.30
2023-01-08T09:41:16.734Z,24.80
2023-01-08T09:42:24.389Z,22.80
2023-01-08T09:43:31.404Z,26.27
2023-01-08T09:44:45.402Z,26.92
2023-01-08T09:45:52.174Z,27.40
2023-01-08T09:46:56.498Z,28.08
2023-01-08T09:48:04.957Z,28.12
2023-01-08T09:49:14.367Z,25.23
2023-01-08T09:50:17.717Z,24.25
2023-01-08T09:51:21.988Z,29.37
2023-01-08T09:52:25.158Z,29.27
2023-01-08T09:53:28.594Z,29.00
2023-01-08T09:54:32.080Z,30.08
2023-01-08T09:55:35.136Z,22.08
2023-01-08T09:56:38.510Z,20.55
2023-01-08T09:57:42.365Z,25.58
2023-01-08T09:58:51.198Z,27.02
2023-01-08T09:59:54.807Z,23.40
2023-01-08T10:00:58.338Z,24.80
2023-01-08T10:02:01.563Z,23.10
2023-01-08T10:03:04.820Z,25.25
2023-01-08T10:04:13.680Z,24.20
2023-01-08T10:05:18.646Z,27.65
2023-01-08T10:06:23.884Z,29.65
2023-01-08T10:07:29.437Z,26.48
2023-01-08T10:08:32.520Z,27.15
2023-01-08T10:09:35.565Z,24.63
2023-01-08T10:10:39.393Z,30.42
2023-01-08T10:11:49.181Z,28.02
2023-01-08T10:12:53.721Z,20.62
2023-01-08T10:13:57.976Z,22.30
2023-01-08T10:15:04.817Z,22.23
2023-01-08T10:16:10.803Z,25.42
2023-01-08T10:17:22.625Z,23.48
2023-01-08T10:18:27.714Z,23.52
2023-01-08T10:19:30.860Z,24.95
2023-01-08T10:20:34.513Z,25.75
2023-01-08T10:21:40.827Z,26.35
2023-01-08T10:22:44.891Z,25.50
2023-01-08T10:23:53.333Z,20.35
2023-01-08T10:25:09.538Z,25.50
2023-01-08T10:26:13.003Z,22.83
2023-01-08T10:27:24.021Z,26.15
2023-01-08T10:28:33.633Z,28.75
2023-01-08T10:29:40.288Z,22.15
2023-01-08T10:30:43.601Z,24.27
2023-01-08T10:31:49.709Z,23.25
2023-01-08T10:32:55.327Z,27.50
2023-01-08T10:34:07.223Z,19.08
2023-01-08T10:35:18.350Z,16.62
2023-01-08T10:36:24.794Z,23.30
2023-01-08T10:37:40.351Z,27.67
2023-01-08T10:38:50.196Z,27.17
2023-01-08T10:39:56.028Z,27.08
2023-01-08T10:41:00.601Z,24.60
2023-01-08T10:42:07.086Z,18.95
2023-01-08T10:43:16.606Z,24.23
2023-01-08T10:44:20.718Z,21.90
2023-01-08T10:45:26.352Z,21.40
2023-01-08T10:46:36.079Z,23.90
2023-01-08T10:47:39.592Z,22.37
2023-01-08T10:48:51.219Z,22.87
2023-01-08T10:51:24.146Z,21.73
2023-01-08T10:52:33.160Z,22.85
2023-01-08T10:53:36.329Z,24.75
2023-01-08T10:54:41.288Z,25.33
2023-01-08T10:55:44.223Z,24.02
2023-01-08T10:56:47.225Z,21.70
2023-01-08T10:58:16.439Z,20.55
2023-01-08T10:59:24.099Z,21.85
2023-01-08T11:00:33.121Z,18.90
2023-01-08T11:01:36.582Z,21.87
2023-01-08T11:02:41.000Z,21.67
2023-01-08T11:03:44.700Z,23.52
2023-01-08T11:04:52.414Z,25.42
2023-01-08T11:05:55.660Z,24.25
2023-01-08T11:07:05.759Z,25.02
2023-01-08T11:08:18.071Z,22.67
2023-01-08T11:09:28.101Z,18.77
2023-01-08T11:10:31.116Z,24.60
2023-01-08T11:11:35.905Z,25.65
2023-01-08T11:12:41.315Z,21.87
2023-01-08T11:14:17.361Z,22.55
2023-01-08T11:15:23.133Z,22.35
2023-01-08T11:16:34.924Z,24.08
2023-01-08T11:17:38.071Z,20.45
2023-01-08T11:18:48.295Z,20.65
2023-01-08T11:19:51.900Z,19.17
2023-01-08T11:21:11.270Z,19.05
2023-01-08T11:22:25.337Z,18.15
2023-01-08T11:23:28.723Z,17.25
2023-01-08T11:24:36.022Z,18.52
2023-01-08T11:25:41.250Z,21.23
2023-01-08T11:26:49.601Z,21.58
2023-01-08T11:27:53.327Z,21.83
2023-01-08T11:29:18.681Z,18.37
2023-01-08T11:30:28.470Z,19.77
2023-01-08T11:31:44.197Z,21.67
2023-01-08T11:33:01.013Z,21.30
2023-01-08T11:34:14.375Z,20.33
2023-01-08T11:35:28.840Z,15.63
2023-01-08T11:36:40.065Z,22.17
2023-01-08T11:37:59.830Z,18.73
2023-01-08T11:39:02.860Z,16.58
2023-01-08T11:40:15.568Z,16.98
2023-01-08T11:41:51.774Z,17.48
2023-01-08T11:43:14.896Z,20.23
2023-01-08T11:44:39.932Z,19.67
2023-01-08T11:46:15.970Z,16.23
2023-01-08T11:47:40.414Z,19.73
2023-01-08T11:49:04.840Z,21.12
2023-01-08T11:50:37.400Z,18.42
2023-01-08T11:52:02.863Z,18.52
2023-01-08T11:53:43.745Z,18.10
2023-01-08T11:55:05.560Z,20.95
2023-01-08T11:56:21.731Z,17.92
2023-01-08T11:57:46.347Z,20.58
2023-01-08T11:59:24.284Z,18.37
2023-01-08T12:00:40.468Z,21.20
2023-01-08T12:02:22.904Z,21.12
2023-01-08T12:03:41.144Z,17.37
2023-01-08T12:04:59.017Z,19.37
2023-01-08T12:06:44.281Z,22.40
2023-01-08T12:08:07.055Z,22.33
2023-01-08T12:09:31.753Z,18.75
2023-01-08T12:10:50.222Z,18.67
2023-01-08T12:12:06.590Z,15.75
2023-01-08T12:13:43.796Z,18.12
2023-01-08T12:14:53.038Z,17.98
2023-01-08T12:16:32.450Z,18.58
2023-01-08T12:17:59.666Z,21.27
2023-01-08T12:19:15.276Z,18.73
2023-01-08T12:20:30.773Z,16.80
2023-01-08T12:22:04.274Z,17.25
2023-01-08T12:23:28.574Z,20.70
2023-01-08T12:24:53.243Z,21.35
2023-01-08T12:26:12.211Z,17.23
2023-01-08T12:27:56.550Z,18.55
2023-01-08T12:29:06.766Z,20.35
2023-01-08T12:30:22.928Z,19.20
2023-01-08T12:31:48.749Z,18.87
2023-01-08T12:33:34.116Z,16.85
2023-01-08T12:34:44.456Z,20.58
2023-01-08T12:35:55.173Z,19.83
2023-01-08T12:37:13.654Z,19.87
2023-01-08T12:38:31.181Z,18.83
2023-01-08T12:39:46.304Z,20.20
2023-01-08T12:40:59.026Z,20.08
2023-01-08T12:42:24.927Z,23.02
2023-01-08T12:43:33.967Z,20.40
2023-01-08T12:44:38.470Z,21.95
2023-01-08T12:45:46.309Z,21.98
2023-01-08T12:46:51.237Z,19.87
2023-01-08T12:48:01.674Z,22.80
2023-01-08T12:49:07.231Z,22.03
2023-01-08T12:50:20.683Z,20.17
2023-01-08T12:51:41.538Z,22.23
2023-01-08T12:53:04.619Z,19.55
2023-01-08T12:54:30.664Z,20.12
2023-01-08T12:55:38.906Z,18.30
2023-01-08T12:56:53.596Z,17.60
2023-01-08T12:58:31.973Z,21.42
2023-01-08T12:59:40.932Z,21.95
2023-01-08T13:01:12.391Z,20.85
2023-01-08T13:02:37.175Z,17.15
2023-01-08T13:03:40.676Z,20.67
2023-01-08T13:04:47.069Z,17.92
2023-01-08T13:05:50.680Z,17.17
2023-01-08T13:07:02.949Z,20.08
2023-01-08T13:08:09.250Z,18.95
2023-01-08T13:09:25.129Z,16.55
2023-01-08T13:10:36.362Z,17.45
2023-01-08T13:11:42.521Z,19.77
2023-01-08T13:12:51.759Z,19.08
2023-01-08T13:14:11.545Z,18.83
2023-01-08T13:15:26.433Z,18.33
2023-01-08T13:16:32.271Z,19.40
2023-01-08T13:17:38.245Z,20.45
2023-01-08T13:18:53.193Z,19.67
2023-01-08T13:20:05.233Z,18.15
2023-01-08T13:21:12.680Z,19.75
2023-01-08T13:22:26.355Z,21.85
2023-01-08T13:23:32.277Z,20.10
2023-01-08T13:24:38.331Z,21.30
2023-01-08T13:25:52.863Z,22.60
2023-01-08T13:27:19.300Z,19.55
2023-01-08T13:28:37.080Z,20.25
2023-01-08T13:29:51.214Z,21.70
2023-01-08T13:30:58.555Z,17.58
2023-01-08T13:32:02.189Z,19.85
2023-01-08T13:33:40.628Z,19.62
2023-01-08T13:34:43.847Z,17.10
2023-01-08T13:35:46.953Z,18.23
2023-01-08T13:36:58.405Z,21.30
2023-01-08T13:38:10.463Z,19.98
2023-01-08T13:39:13.552Z,21.40
2023-01-08T13:40:44.581Z,19.33
2023-01-08T13:42:04.882Z,20.42
2023-01-08T13:43:15.713Z,18.45
2023-01-08T13:44:30.547Z,21.85
2023-01-08T13:45:34.317Z,17.48
2023-01-08T13:46:41.207Z,17.35
2023-01-08T13:47:46.622Z,20.48
2023-01-08T13:49:05.753Z,19.12
2023-01-08T13:50:37.403Z,18.33
2023-01-08T13:51:44.105Z,19.40
2023-01-08T13:53:00.106Z,17.12
2023-01-08T13:54:17.675Z,23.67
2023-01-08T13:55:27.734Z,20.70
2023-01-08T13:56:31.843Z,17.40
2023-01-08T13:57:40.915Z,17.37
2023-01-08T13:58:52.394Z,22.65
2023-01-08T13:59:58.279Z,17.27
2023-01-08T14:01:03.849Z,17.35
2023-01-08T14:02:27.214Z,21.58
2023-01-08T14:03:35.434Z,17.40
2023-01-08T14:04:38.775Z,19.60
2023-01-08T14:05:41.846Z,19.77
2023-01-08T14:06:44.999Z,18.85
2023-01-08T14:07:48.040Z,16.52
2023-01-08T14:08:59.257Z,19.00
2023-01-08T14:10:13.321Z,22.50
2023-01-08T14:11:16.443Z,20.98
2023-01-08T14:12:25.526Z,19.08
2023-01-08T14:13:32.480Z,19.20
2023-01-08T14:14:39.367Z,16.87
2023-01-08T14:15:42.595Z,18.42
2023-01-08T14:16:47.627Z,19.45
2023-01-08T14:17:52.238Z,18.05
2023-01-08T14:18:59.207Z,20.70
2023-01-08T14:20:03.213Z,19.08
2023-01-08T14:21:06.782Z,19.77
2023-01-08T14:22:19.458Z,16.75
2023-01-08T14:23:30.238Z,19.02
2023-01-08T14:24:33.963Z,17.10
2023-01-08T14:25:37.352Z,18.77